• Join FlightAware (Why Join?)
  • Login
  • US Flag 
12:33AM EDT


 

Airport Tracker/Info


-or-


 

Live Flight TrackerFlight Track Log ✈ FLG3861 ✈ 17-Sep-2013 ✈ KDTW - KBGM

Flight Track Log - Related Links

Times and Time Zones

All times are in EDT time to prevent confusion due to time zone crossing. See the FLG3861 flight status page for this flight to view local times or setup timezone preferences in your user account.

Time Position Orientation Groundspeed Altitude Reporting Facility
EDT Latitude Longitude Course Direction KTS MPH feet Rate Location/Type
11:34PM 42.1947 -83.3514 188° South 151 174 1,400  Level Cleveland Center
11:34PM 42.1778 -83.3547 188° South 153 176 2,300 1,920 Climbing Cleveland Center
11:35PM 42.1236 -83.3497 176° South 220 253 4,200 1,800 Climbing Cleveland Center
11:36PM 42.0836 -83.3456 176° South 224 258 5,300 2,460 Climbing Cleveland Center
11:36PM 42.0439 -83.3244 158° South 293 337 7,200 3,000 Climbing Cleveland Center
11:37PM 42.0303 -83.2836 114° Southeast 276 318 8,300 2,520 Climbing Cleveland Center
11:38PM 42.0636 -83.1867 65° Northeast 290 334 10,800 1,620 Climbing Cleveland Center
11:39PM 42.1106 -83.0783 60° Northeast 336 387 11,700 1,440 Climbing Cleveland Center
11:40PM 42.1550 -82.9606 63° Northeast 354 407 13,800 1,920 Climbing Cleveland Center
11:41PM 42.1578 -82.8236 88° East 367 422 15,600 1,560 Climbing Cleveland Center
11:42PM 42.1617 -82.6836 88° East 374 430 17,000 1,320 Climbing Cleveland Center
11:43PM 42.1656 -82.5392 88° East 385 443 18,300 1,140 Climbing Cleveland Center
11:44PM 42.1675 -82.3942 89° East 389 448 19,400 1,140 Climbing Cleveland Center
11:45PM 42.1700 -82.2456 89° East 396 456 20,600 960 Climbing Cleveland Center
11:46PM 42.1728 -82.0986 88° East 404 465 21,400 840 Climbing Cleveland Center
11:47PM 42.1761 -81.9386 88° East 419 482 22,300 900 Climbing Cleveland Center
11:48PM 42.1778 -81.7789 89° East 422 486 23,300 900 Climbing Cleveland Center
11:49PM 42.1808 -81.6158 88° East 428 493 24,200 840 Climbing Cleveland Center
11:50PM 42.1822 -81.4517 89° East 431 496 25,100 780 Climbing Cleveland Center
11:51PM 42.1853 -81.2864 89° East 435 501 25,800 600 Climbing Cleveland Center
11:52PM 42.1867 -81.1194 89° East 440 506 26,400 540 Climbing Cleveland Center
11:53PM 42.1872 -80.9522 90° East 442 509 27,000 240 Climbing Cleveland Center
11:54PM 42.1883 -80.7819 89° East 448 516 27,000  Level Cleveland Center
11:55PM 42.1900 -80.6058 89° East 461 531 27,000  Level Cleveland Center
11:56PM 42.1925 -80.4272 89° East 470 541 27,000  Level Cleveland Center
11:57PM 42.1967 -80.2492 88° East 470 541 27,000  Level Cleveland Center
11:58PM 42.2003 -80.0686 88° East 478 550 27,000  Level Cleveland Center
11:59PM 42.2039 -79.8964 88° East 475 547 27,000  Level Cleveland Center
12:00AM 42.2064 -79.7200 89° East 473 544 27,000  Level Cleveland Center
12:01AM 42.2092 -79.5419 89° East 477 549 27,000  Level Cleveland Center
12:02AM 42.2114 -79.3308 89° East 473 544 27,000  Level Cleveland Center
12:03AM 42.2144 -79.1536 89° East 476 548 27,000  Level Cleveland Center
12:04AM 42.2156 -78.9792 89° East 470 541 27,000  Level Cleveland Center
12:05AM 42.2172 -78.8000 89° East 470 541 27,000  Level Cleveland Center
12:06AM 42.2192 -78.6250 89° East 469 540 27,000  Level Cleveland Center
12:07AM 42.2200 -78.4517 90° East 466 536 27,000  Level Cleveland Center
12:08AM 42.2211 -78.2778 89° East 467 537 27,000 -120 Level Cleveland Center
12:09AM 42.2228 -78.1053 89° East 465 535 26,800 -1,200 Descending Cleveland Center
12:10AM 42.2239 -77.9314 89° East 467 537 24,600 -2,100 Descending Cleveland Center
12:11AM 42.2239 -77.7594 90° East 466 536 22,600 -2,040 Descending Cleveland Center
12:12AM 42.2225 -77.5936 91° East 454 522 20,500 -2,100 Descending Cleveland Center
12:13AM 42.2225 -77.4361 90° East 431 496 18,400 -1,740 Descending Cleveland Center
12:14AM 42.2214 -77.2836 91° East 415 478 17,100 -720 Descending Cleveland Center
12:15AM 42.2203 -77.1281 91° East 417 480 17,000 -1,020 Descending Cleveland Center
12:16AM 42.2194 -76.9767 90° East 409 471 15,100 -2,160 Descending Cleveland Center
12:17AM 42.2189 -76.8344 90° East 386 444 12,700 -2,040 Descending Cleveland Center
12:18AM 42.2167 -76.7081 91° East 346 398 11,100 -1,740 Descending Cleveland Center
12:19AM 42.2167 -76.6022 90° East 290 334 9,300 -1,860 Descending Cleveland Center
12:20AM 42.2150 -76.4989 91° East 278 320 7,400 -2,100 Descending Cleveland Center
12:21AM 42.2142 -76.3836 91° East 271 312 5,100 -1,200 Descending Cleveland Center
12:22AM 42.2164 -76.2883 88° East 260 299 5,000 -900 Descending Cleveland Center
12:23AM 42.2394 -76.2050 69° East 248 285 3,400 -960 Descending Cleveland Center
12:24AM 42.2589 -76.1211 73° East 244 281 3,100 -180 Descending Cleveland Center
12:26AM 42.2711 -76.0336 79° East 194 223 3,100 -420 Level New York Center
12:27AM 42.2389 -76.0086 150° Southeast 124 143 2,200 900 Descending New York Center
12:28AM 42.2264 -75.9600 109° East 124 143 5,000 2,760 Climbing New York Center